36分钟前
罗盘
风向 的 风向 300° Revel Montgey Airport 13/31
风: 6 千吨, 2 beaufort
0 500 1.500 3.000 5.000 8.000 10.000
BKN 2.000 ft
METAR LFCK 291700Z AUTO 30006KT 9999 BKN020 03/00 Q1019 BECMG BKN010

METAR定义 | 嵌入

24小时趋势

航班类别VFRLIFR
温度4 °C0 °C
风速14 千吨0 千吨
能见度10 公里+0 米

更多历史数据

下载我们的安卓应用程序

从你的主屏幕上轻松地访问你的航空天气。
只需一次付费,您就可以获得无广告的体验。

您会帮助我们保持Metar-Taf.com正常运行吗?
您的贡献有助于网站的进一步开发并支付费用。

没有更多广告

您是捐款5美元还是更多?然后,我们将永远不会再向您展示广告,这是我们永恒的感谢!
捐赠前先登录

METAR Revel Montgey Airport

Revel Montgey Airport是Moulins,法国中的小机场。 机场有{a,plural,=1{一条跑道} other{#跑道}}: 13/31

Revel Montgey Airport最近未发布观察结果。相反,我们向您显示26 km的报告Castres-Mazamet Airport。 该报告是针对2021年11月29日 18:00, 当地时间进行的。

机场观察

风来自西北西 (300°)方向,速度为6 千吨。

可见度为10 公里 或者更多。

有碎云在2.000 ft的高度。 破损或更高的上限为2.000 ft。

温度为3 °C,阵风为-2 °C。 海平面上的气压为1019 压力 (QNH)。

发展趋势

  • 变得

    可变方向的风很小或没有。 碎云在1.000 ft的高度.

白天

今天,太阳从08:03升起,在17:17降落。 这适用于Revel Montgey Airport,世界夏令时可能有所不同。 当地时间与世界标准时间之间的时差为+1 小时。 当前,没有夏令时有效。

公司介绍

我们没有关于这个机场的公司信息。

体会

到Vliegles.nl去找飞行课程,跳伞和其他飞行体验。 浏览页面,了解Revel Montgey Airport附近所有可用的活动。 你也可以使用搜索功能来寻找你所在地附近的特定飞行课程、跳伞或其他飞行体验。

您是否要在网站上Revel Montgey Airport飞行的天气? 阅读更多   自由!